sensor_id;sensor_type;location;lat;lon;timestamp;P1;durP1;ratioP1;P2;durP2;ratioP2
7334;SDS011;3708;42.632;23.378;2022-08-01T00:00:49;4.00;;;2.20;;
7334;SDS011;3708;42.632;23.378;2022-08-01T00:03:17;3.87;;;2.10;;
7334;SDS011;3708;42.632;23.378;2022-08-01T00:05:44;3.03;;;2.30;;
7334;SDS011;3708;42.632;23.378;2022-08-01T00:08:11;3.33;;;2.40;;
7334;SDS011;3708;42.632;23.378;2022-08-01T00:10:38;6.27;;;2.30;;
7334;SDS011;3708;42.632;23.378;2022-08-01T00:13:05;3.73;;;2.10;;
7334;SDS011;3708;42.632;23.378;2022-08-01T00:15:32;2.47;;;1.93;;
7334;SDS011;3708;42.632;23.378;2022-08-01T00:17:59;2.20;;;1.70;;
7334;SDS011;3708;42.632;23.378;2022-08-01T00:20:27;3.37;;;1.80;;
7334;SDS011;3708;42.632;23.378;2022-08-01T00:22:54;3.97;;;1.70;;
7334;SDS011;3708;42.632;23.378;2022-08-01T00:25:21;2.70;;;1.80;;
7334;SDS011;3708;42.632;23.378;2022-08-01T00:27:48;2.07;;;1.87;;
7334;SDS011;3708;42.632;23.378;2022-08-01T00:30:15;3.23;;;1.80;;
7334;SDS011;3708;42.632;23.378;2022-08-01T00:32:42;3.67;;;2.07;;
7334;SDS011;3708;42.632;23.378;2022-08-01T00:35:09;8.70;;;2.10;;
7334;SDS011;3708;42.632;23.378;2022-08-01T00:37:39;8.90;;;2.27;;
7334;SDS011;3708;42.632;23.378;2022-08-01T00:40:07;5.53;;;2.30;;
7334;SDS011;3708;42.632;23.378;2022-08-01T00:42:34;5.87;;;3.20;;
7334;SDS011;3708;42.632;23.378;2022-08-01T00:45:01;5.37;;;4.87;;
7334;SDS011;3708;42.632;23.378;2022-08-01T00:47:28;6.13;;;4.40;;
7334;SDS011;3708;42.632;23.378;2022-08-01T00:49:55;5.80;;;5.20;;
7334;SDS011;3708;42.632;23.378;2022-08-01T00:52:22;5.30;;;4.80;;
7334;SDS011;3708;42.632;23.378;2022-08-01T00:54:51;6.80;;;5.70;;
7334;SDS011;3708;42.632;23.378;2022-08-01T00:57:18;8.00;;;5.17;;
7334;SDS011;3708;42.632;23.378;2022-08-01T00:59:45;5.90;;;5.30;;
7334;SDS011;3708;42.632;23.378;2022-08-01T01:02:11;7.97;;;5.77;;
7334;SDS011;3708;42.632;23.378;2022-08-01T01:04:38;6.10;;;5.50;;
7334;SDS011;3708;42.632;23.378;2022-08-01T01:07:06;6.80;;;6.10;;
7334;SDS011;3708;42.632;23.378;2022-08-01T01:09:44;6.57;;;5.67;;
7334;SDS011;3708;42.632;23.378;2022-08-01T01:12:19;8.50;;;6.77;;
7334;SDS011;3708;42.632;23.378;2022-08-01T01:14:54;6.10;;;5.50;;
7334;SDS011;3708;42.632;23.378;2022-08-01T01:17:28;6.23;;;5.60;;
7334;SDS011;3708;42.632;23.378;2022-08-01T01:20:03;6.30;;;5.70;;
7334;SDS011;3708;42.632;23.378;2022-08-01T01:22:42;7.83;;;5.83;;
7334;SDS011;3708;42.632;23.378;2022-08-01T01:25:32;7.13;;;5.60;;
7334;SDS011;3708;42.632;23.378;2022-08-01T01:28:08;6.00;;;5.40;;
7334;SDS011;3708;42.632;23.378;2022-08-01T01:30:43;6.30;;;5.80;;
7334;SDS011;3708;42.632;23.378;2022-08-01T01:33:12;9.13;;;5.70;;
7334;SDS011;3708;42.632;23.378;2022-08-01T01:35:41;7.60;;;5.80;;
7334;SDS011;3708;42.632;23.378;2022-08-01T01:38:14;7.83;;;5.13;;
7334;SDS011;3708;42.632;23.378;2022-08-01T01:40:43;6.63;;;5.03;;
7334;SDS011;3708;42.632;23.378;2022-08-01T01:43:13;5.00;;;4.30;;
7334;SDS011;3708;42.632;23.378;2022-08-01T01:45:43;7.23;;;5.43;;
7334;SDS011;3708;42.632;23.378;2022-08-01T01:48:12;6.20;;;5.20;;
7334;SDS011;3708;42.632;23.378;2022-08-01T01:50:41;5.87;;;5.27;;
7334;SDS011;3708;42.632;23.378;2022-08-01T01:53:09;5.60;;;5.10;;
7334;SDS011;3708;42.632;23.378;2022-08-01T01:55:38;7.00;;;5.77;;
7334;SDS011;3708;42.632;23.378;2022-08-01T01:58:07;11.40;;;5.57;;
7334;SDS011;3708;42.632;23.378;2022-08-01T02:00:38;8.33;;;5.00;;
7334;SDS011;3708;42.632;23.378;2022-08-01T02:03:07;10.03;;;6.67;;
7334;SDS011;3708;42.632;23.378;2022-08-01T02:05:38;6.53;;;5.83;;
7334;SDS011;3708;42.632;23.378;2022-08-01T02:08:06;5.27;;;4.77;;
7334;SDS011;3708;42.632;23.378;2022-08-01T02:10:34;6.30;;;4.97;;
7334;SDS011;3708;42.632;23.378;2022-08-01T02:13:03;6.10;;;3.83;;
7334;SDS011;3708;42.632;23.378;2022-08-01T02:15:33;5.73;;;4.17;;
7334;SDS011;3708;42.632;23.378;2022-08-01T02:18:03;4.70;;;3.90;;
7334;SDS011;3708;42.632;23.378;2022-08-01T02:20:34;5.33;;;3.20;;
7334;SDS011;3708;42.632;23.378;2022-08-01T02:23:05;4.20;;;3.70;;
7334;SDS011;3708;42.632;23.378;2022-08-01T02:25:36;3.70;;;3.10;;
7334;SDS011;3708;42.632;23.378;2022-08-01T02:28:09;3.50;;;2.23;;
7334;SDS011;3708;42.632;23.378;2022-08-01T02:30:41;6.23;;;2.20;;
7334;SDS011;3708;42.632;23.378;2022-08-01T02:33:17;6.07;;;3.77;;
7334;SDS011;3708;42.632;23.378;2022-08-01T02:35:48;5.93;;;3.20;;
7334;SDS011;3708;42.632;23.378;2022-08-01T02:38:22;4.30;;;2.97;;
7334;SDS011;3708;42.632;23.378;2022-08-01T02:40:52;4.50;;;2.33;;
7334;SDS011;3708;42.632;23.378;2022-08-01T02:43:23;5.03;;;3.07;;
7334;SDS011;3708;42.632;23.378;2022-08-01T02:45:58;5.67;;;2.30;;
7334;SDS011;3708;42.632;23.378;2022-08-01T02:48:30;5.80;;;2.70;;
7334;SDS011;3708;42.632;23.378;2022-08-01T02:59:08;4.83;;;2.63;;
7334;SDS011;3708;42.632;23.378;2022-08-01T03:01:44;3.27;;;2.60;;
7334;SDS011;3708;42.632;23.378;2022-08-01T03:04:20;4.73;;;2.70;;
7334;SDS011;3708;42.632;23.378;2022-08-01T03:06:56;3.63;;;3.00;;
7334;SDS011;3708;42.632;23.378;2022-08-01T03:09:35;4.00;;;3.10;;
7334;SDS011;3708;42.632;23.378;2022-08-01T03:12:27;3.57;;;2.97;;
7334;SDS011;3708;42.632;23.378;2022-08-01T03:15:10;6.33;;;3.07;;
7334;SDS011;3708;42.632;23.378;2022-08-01T03:17:51;3.30;;;3.00;;
7334;SDS011;3708;42.632;23.378;2022-08-01T03:20:21;4.37;;;3.50;;
7334;SDS011;3708;42.632;23.378;2022-08-01T03:22:52;4.10;;;3.10;;
7334;SDS011;3708;42.632;23.378;2022-08-01T03:25:25;9.87;;;3.47;;
7334;SDS011;3708;42.632;23.378;2022-08-01T03:28:07;6.60;;;2.80;;
7334;SDS011;3708;42.632;23.378;2022-08-01T03:30:39;5.70;;;3.27;;
7334;SDS011;3708;42.632;23.378;2022-08-01T03:33:09;7.77;;;3.73;;
7334;SDS011;3708;42.632;23.378;2022-08-01T03:35:41;7.27;;;3.87;;
7334;SDS011;3708;42.632;23.378;2022-08-01T03:38:13;7.37;;;3.77;;
7334;SDS011;3708;42.632;23.378;2022-08-01T03:40:47;3.90;;;3.50;;
7334;SDS011;3708;42.632;23.378;2022-08-01T03:43:22;5.87;;;3.50;;
7334;SDS011;3708;42.632;23.378;2022-08-01T03:45:57;3.70;;;2.87;;
7334;SDS011;3708;42.632;23.378;2022-08-01T03:48:32;7.67;;;3.17;;
7334;SDS011;3708;42.632;23.378;2022-08-01T03:51:03;3.50;;;3.20;;
7334;SDS011;3708;42.632;23.378;2022-08-01T03:53:36;7.17;;;3.57;;
7334;SDS011;3708;42.632;23.378;2022-08-01T03:56:05;7.33;;;3.20;;
7334;SDS011;3708;42.632;23.378;2022-08-01T03:58:36;6.93;;;3.67;;
7334;SDS011;3708;42.632;23.378;2022-08-01T04:01:05;7.17;;;3.20;;
7334;SDS011;3708;42.632;23.378;2022-08-01T04:03:34;8.00;;;3.20;;
7334;SDS011;3708;42.632;23.378;2022-08-01T04:06:03;9.13;;;4.10;;
7334;SDS011;3708;42.632;23.378;2022-08-01T04:08:34;3.70;;;2.60;;
7334;SDS011;3708;42.632;23.378;2022-08-01T04:11:01;9.03;;;3.07;;
7334;SDS011;3708;42.632;23.378;2022-08-01T04:13:29;6.13;;;3.73;;
7334;SDS011;3708;42.632;23.378;2022-08-01T04:15:58;3.40;;;2.43;;
7334;SDS011;3708;42.632;23.378;2022-08-01T04:18:25;4.40;;;3.10;;
7334;SDS011;3708;42.632;23.378;2022-08-01T04:20:52;7.30;;;3.20;;
7334;SDS011;3708;42.632;23.378;2022-08-01T04:23:20;9.77;;;3.73;;
7334;SDS011;3708;42.632;23.378;2022-08-01T04:25:51;3.70;;;2.97;;
7334;SDS011;3708;42.632;23.378;2022-08-01T04:28:19;8.80;;;3.67;;
7334;SDS011;3708;42.632;23.378;2022-08-01T04:30:48;6.43;;;3.77;;
7334;SDS011;3708;42.632;23.378;2022-08-01T04:33:19;6.50;;;3.97;;
7334;SDS011;3708;42.632;23.378;2022-08-01T04:35:47;7.73;;;3.93;;
7334;SDS011;3708;42.632;23.378;2022-08-01T04:38:17;6.83;;;3.70;;
7334;SDS011;3708;42.632;23.378;2022-08-01T04:40:47;6.53;;;3.10;;
7334;SDS011;3708;42.632;23.378;2022-08-01T04:43:16;5.27;;;3.57;;
7334;SDS011;3708;42.632;23.378;2022-08-01T04:45:44;4.97;;;2.97;;
7334;SDS011;3708;42.632;23.378;2022-08-01T04:48:13;4.50;;;2.90;;
7334;SDS011;3708;42.632;23.378;2022-08-01T04:50:46;3.40;;;2.90;;
7334;SDS011;3708;42.632;23.378;2022-08-01T04:53:13;6.77;;;3.17;;
7334;SDS011;3708;42.632;23.378;2022-08-01T04:55:42;5.93;;;4.07;;
7334;SDS011;3708;42.632;23.378;2022-08-01T04:58:09;4.50;;;3.73;;
7334;SDS011;3708;42.632;23.378;2022-08-01T05:00:36;13.90;;;3.47;;
7334;SDS011;3708;42.632;23.378;2022-08-01T05:03:03;7.90;;;2.93;;
7334;SDS011;3708;42.632;23.378;2022-08-01T05:05:36;6.20;;;2.80;;
7334;SDS011;3708;42.632;23.378;2022-08-01T05:08:05;6.50;;;3.10;;
7334;SDS011;3708;42.632;23.378;2022-08-01T05:10:32;8.70;;;3.00;;
7334;SDS011;3708;42.632;23.378;2022-08-01T05:12:59;6.93;;;3.17;;
7334;SDS011;3708;42.632;23.378;2022-08-01T05:15:26;7.57;;;3.13;;
7334;SDS011;3708;42.632;23.378;2022-08-01T05:17:53;5.67;;;3.17;;
7334;SDS011;3708;42.632;23.378;2022-08-01T05:20:20;9.03;;;2.87;;
7334;SDS011;3708;42.632;23.378;2022-08-01T05:22:47;5.27;;;3.17;;
7334;SDS011;3708;42.632;23.378;2022-08-01T05:25:17;6.27;;;3.00;;
7334;SDS011;3708;42.632;23.378;2022-08-01T05:27:44;6.40;;;2.93;;
7334;SDS011;3708;42.632;23.378;2022-08-01T05:30:11;4.23;;;3.07;;
7334;SDS011;3708;42.632;23.378;2022-08-01T05:32:38;5.80;;;3.20;;
7334;SDS011;3708;42.632;23.378;2022-08-01T05:35:06;5.97;;;3.50;;
7334;SDS011;3708;42.632;23.378;2022-08-01T05:37:34;4.93;;;3.40;;
7334;SDS011;3708;42.632;23.378;2022-08-01T05:40:02;9.53;;;3.40;;
7334;SDS011;3708;42.632;23.378;2022-08-01T05:42:31;5.07;;;2.53;;
7334;SDS011;3708;42.632;23.378;2022-08-01T05:44:58;4.17;;;2.77;;
7334;SDS011;3708;42.632;23.378;2022-08-01T05:47:25;6.70;;;3.17;;
7334;SDS011;3708;42.632;23.378;2022-08-01T05:49:52;7.80;;;3.07;;
7334;SDS011;3708;42.632;23.378;2022-08-01T05:52:19;5.03;;;2.30;;
7334;SDS011;3708;42.632;23.378;2022-08-01T05:54:47;4.97;;;3.17;;
7334;SDS011;3708;42.632;23.378;2022-08-01T05:57:13;6.33;;;3.13;;
7334;SDS011;3708;42.632;23.378;2022-08-01T05:59:42;5.57;;;3.00;;
7334;SDS011;3708;42.632;23.378;2022-08-01T06:02:09;3.70;;;3.07;;
7334;SDS011;3708;42.632;23.378;2022-08-01T06:04:36;6.07;;;2.87;;
7334;SDS011;3708;42.632;23.378;2022-08-01T06:07:03;7.17;;;2.70;;
7334;SDS011;3708;42.632;23.378;2022-08-01T06:09:30;5.57;;;2.30;;
7334;SDS011;3708;42.632;23.378;2022-08-01T06:11:57;3.00;;;2.50;;
7334;SDS011;3708;42.632;23.378;2022-08-01T06:14:24;7.33;;;2.60;;
7334;SDS011;3708;42.632;23.378;2022-08-01T06:16:53;7.40;;;2.53;;
7334;SDS011;3708;42.632;23.378;2022-08-01T06:19:21;2.43;;;1.93;;
7334;SDS011;3708;42.632;23.378;2022-08-01T06:21:48;3.37;;;2.23;;
7334;SDS011;3708;42.632;23.378;2022-08-01T06:24:15;4.37;;;2.50;;
7334;SDS011;3708;42.632;23.378;2022-08-01T06:26:42;4.03;;;2.57;;
7334;SDS011;3708;42.632;23.378;2022-08-01T06:29:09;10.00;;;2.30;;
7334;SDS011;3708;42.632;23.378;2022-08-01T06:31:36;5.67;;;2.30;;
7334;SDS011;3708;42.632;23.378;2022-08-01T06:34:04;3.63;;;1.97;;
7334;SDS011;3708;42.632;23.378;2022-08-01T06:36:31;3.17;;;2.17;;
7334;SDS011;3708;42.632;23.378;2022-08-01T06:38:58;4.53;;;2.10;;
7334;SDS011;3708;42.632;23.378;2022-08-01T06:41:25;4.30;;;2.20;;
7334;SDS011;3708;42.632;23.378;2022-08-01T06:43:53;4.70;;;2.27;;
7334;SDS011;3708;42.632;23.378;2022-08-01T06:46:20;6.57;;;2.00;;
7334;SDS011;3708;42.632;23.378;2022-08-01T06:48:48;4.80;;;2.13;;
7334;SDS011;3708;42.632;23.378;2022-08-01T06:51:17;5.00;;;2.40;;
7334;SDS011;3708;42.632;23.378;2022-08-01T06:53:45;3.77;;;2.37;;
7334;SDS011;3708;42.632;23.378;2022-08-01T06:56:12;4.53;;;2.53;;
7334;SDS011;3708;42.632;23.378;2022-08-01T06:58:39;2.70;;;2.30;;
7334;SDS011;3708;42.632;23.378;2022-08-01T07:01:06;4.93;;;2.17;;
7334;SDS011;3708;42.632;23.378;2022-08-01T07:03:42;3.33;;;2.40;;
7334;SDS011;3708;42.632;23.378;2022-08-01T07:06:09;4.20;;;2.20;;
7334;SDS011;3708;42.632;23.378;2022-08-01T07:08:45;5.50;;;2.57;;
7334;SDS011;3708;42.632;23.378;2022-08-01T07:11:13;8.63;;;2.83;;
7334;SDS011;3708;42.632;23.378;2022-08-01T07:13:40;5.83;;;2.23;;
7334;SDS011;3708;42.632;23.378;2022-08-01T07:16:10;4.20;;;2.37;;
7334;SDS011;3708;42.632;23.378;2022-08-01T07:18:38;2.80;;;2.33;;
7334;SDS011;3708;42.632;23.378;2022-08-01T07:21:06;4.72;;;2.45;;
7334;SDS011;3708;42.632;23.378;2022-08-01T07:23:36;3.80;;;2.60;;
7334;SDS011;3708;42.632;23.378;2022-08-01T07:26:10;4.97;;;2.40;;
7334;SDS011;3708;42.632;23.378;2022-08-01T07:28:38;4.20;;;2.50;;
7334;SDS011;3708;42.632;23.378;2022-08-01T07:31:05;2.67;;;2.37;;
7334;SDS011;3708;42.632;23.378;2022-08-01T07:33:32;4.00;;;2.50;;
7334;SDS011;3708;42.632;23.378;2022-08-01T07:36:00;4.80;;;2.90;;
7334;SDS011;3708;42.632;23.378;2022-08-01T07:38:28;3.03;;;2.17;;
7334;SDS011;3708;42.632;23.378;2022-08-01T07:40:55;4.10;;;2.30;;
7334;SDS011;3708;42.632;23.378;2022-08-01T07:43:24;8.80;;;2.70;;
7334;SDS011;3708;42.632;23.378;2022-08-01T07:45:51;3.90;;;2.27;;
7334;SDS011;3708;42.632;23.378;2022-08-01T07:48:24;3.17;;;2.10;;
7334;SDS011;3708;42.632;23.378;2022-08-01T07:50:52;4.38;;;2.40;;
7334;SDS011;3708;42.632;23.378;2022-08-01T07:53:19;4.82;;;2.30;;
7334;SDS011;3708;42.632;23.378;2022-08-01T07:55:46;5.10;;;2.53;;
7334;SDS011;3708;42.632;23.378;2022-08-01T07:58:16;5.45;;;2.33;;
7334;SDS011;3708;42.632;23.378;2022-08-01T08:00:44;8.43;;;2.17;;
7334;SDS011;3708;42.632;23.378;2022-08-01T08:03:11;3.05;;;2.40;;
7334;SDS011;3708;42.632;23.378;2022-08-01T08:05:38;5.03;;;2.60;;
7334;SDS011;3708;42.632;23.378;2022-08-01T08:08:08;3.35;;;2.45;;
7334;SDS011;3708;42.632;23.378;2022-08-01T08:10:59;3.28;;;2.38;;
7334;SDS011;3708;42.632;23.378;2022-08-01T08:13:26;2.95;;;2.58;;
7334;SDS011;3708;42.632;23.378;2022-08-01T08:15:55;3.55;;;2.33;;
7334;SDS011;3708;42.632;23.378;2022-08-01T08:18:23;5.35;;;2.30;;
7334;SDS011;3708;42.632;23.378;2022-08-01T08:20:50;3.20;;;2.65;;
7334;SDS011;3708;42.632;23.378;2022-08-01T08:23:17;3.03;;;2.72;;
7334;SDS011;3708;42.632;23.378;2022-08-01T08:26:01;5.35;;;2.65;;
7334;SDS011;3708;42.632;23.378;2022-08-01T08:28:28;4.75;;;2.53;;
7334;SDS011;3708;42.632;23.378;2022-08-01T08:30:57;3.72;;;2.38;;
7334;SDS011;3708;42.632;23.378;2022-08-01T08:33:23;4.72;;;2.35;;
7334;SDS011;3708;42.632;23.378;2022-08-01T08:35:50;3.22;;;2.33;;
7334;SDS011;3708;42.632;23.378;2022-08-01T08:38:19;2.53;;;2.33;;
7334;SDS011;3708;42.632;23.378;2022-08-01T08:40:46;6.75;;;2.60;;
7334;SDS011;3708;42.632;23.378;2022-08-01T08:43:13;5.30;;;2.70;;
7334;SDS011;3708;42.632;23.378;2022-08-01T08:45:42;4.85;;;2.60;;
7334;SDS011;3708;42.632;23.378;2022-08-01T08:48:12;3.25;;;2.40;;
7334;SDS011;3708;42.632;23.378;2022-08-01T08:50:40;2.42;;;2.10;;
7334;SDS011;3708;42.632;23.378;2022-08-01T08:53:07;2.80;;;2.20;;
7334;SDS011;3708;42.632;23.378;2022-08-01T08:55:36;5.38;;;2.25;;
7334;SDS011;3708;42.632;23.378;2022-08-01T08:58:04;2.40;;;2.00;;
7334;SDS011;3708;42.632;23.378;2022-08-01T09:00:31;4.18;;;2.53;;
7334;SDS011;3708;42.632;23.378;2022-08-01T09:03:01;3.35;;;2.33;;
7334;SDS011;3708;42.632;23.378;2022-08-01T09:05:30;2.92;;;1.98;;
7334;SDS011;3708;42.632;23.378;2022-08-01T09:07:57;2.90;;;2.10;;
7334;SDS011;3708;42.632;23.378;2022-08-01T09:10:25;3.90;;;2.42;;
7334;SDS011;3708;42.632;23.378;2022-08-01T09:13:13;3.22;;;2.22;;
7334;SDS011;3708;42.632;23.378;2022-08-01T09:15:41;4.10;;;2.30;;
7334;SDS011;3708;42.632;23.378;2022-08-01T09:18:26;2.63;;;2.15;;
7334;SDS011;3708;42.632;23.378;2022-08-01T09:21:12;2.88;;;2.38;;
7334;SDS011;3708;42.632;23.378;2022-08-01T09:23:42;2.60;;;2.10;;
7334;SDS011;3708;42.632;23.378;2022-08-01T09:26:11;4.03;;;2.25;;
7334;SDS011;3708;42.632;23.378;2022-08-01T09:28:39;3.63;;;2.25;;
7334;SDS011;3708;42.632;23.378;2022-08-01T09:31:07;2.40;;;2.20;;
7334;SDS011;3708;42.632;23.378;2022-08-01T09:33:52;3.88;;;2.40;;
7334;SDS011;3708;42.632;23.378;2022-08-01T09:36:22;3.03;;;2.20;;
7334;SDS011;3708;42.632;23.378;2022-08-01T09:38:51;4.82;;;2.00;;
7334;SDS011;3708;42.632;23.378;2022-08-01T09:41:28;3.63;;;2.15;;
7334;SDS011;3708;42.632;23.378;2022-08-01T09:43:56;3.78;;;2.53;;
7334;SDS011;3708;42.632;23.378;2022-08-01T09:46:24;3.55;;;2.28;;
7334;SDS011;3708;42.632;23.378;2022-08-01T09:48:57;6.30;;;2.90;;
7334;SDS011;3708;42.632;23.378;2022-08-01T09:51:30;6.43;;;2.10;;
7334;SDS011;3708;42.632;23.378;2022-08-01T09:53:58;2.90;;;2.30;;
7334;SDS011;3708;42.632;23.378;2022-08-01T09:56:26;3.88;;;2.08;;
7334;SDS011;3708;42.632;23.378;2022-08-01T09:59:01;2.95;;;2.55;;
7334;SDS011;3708;42.632;23.378;2022-08-01T10:01:37;2.15;;;1.95;;
7334;SDS011;3708;42.632;23.378;2022-08-01T10:04:10;2.22;;;1.92;;
7334;SDS011;3708;42.632;23.378;2022-08-01T10:06:40;4.97;;;2.15;;
7334;SDS011;3708;42.632;23.378;2022-08-01T10:09:09;2.70;;;2.50;;
7334;SDS011;3708;42.632;23.378;2022-08-01T10:11:37;6.03;;;2.63;;
7334;SDS011;3708;42.632;23.378;2022-08-01T10:14:07;3.28;;;2.30;;
7334;SDS011;3708;42.632;23.378;2022-08-01T10:16:35;5.13;;;2.45;;
7334;SDS011;3708;42.632;23.378;2022-08-01T10:19:03;2.42;;;2.13;;
7334;SDS011;3708;42.632;23.378;2022-08-01T10:21:32;3.85;;;2.50;;
7334;SDS011;3708;42.632;23.378;2022-08-01T10:24:02;5.15;;;2.55;;
7334;SDS011;3708;42.632;23.378;2022-08-01T10:26:32;2.90;;;2.30;;
7334;SDS011;3708;42.632;23.378;2022-08-01T10:29:00;3.90;;;2.38;;
7334;SDS011;3708;42.632;23.378;2022-08-01T10:31:29;2.97;;;2.60;;
7334;SDS011;3708;42.632;23.378;2022-08-01T10:33:58;2.75;;;2.47;;
7334;SDS011;3708;42.632;23.378;2022-08-01T10:36:26;3.55;;;2.55;;
7334;SDS011;3708;42.632;23.378;2022-08-01T10:38:54;3.55;;;2.42;;
7334;SDS011;3708;42.632;23.378;2022-08-01T10:41:23;2.92;;;1.90;;
7334;SDS011;3708;42.632;23.378;2022-08-01T10:43:51;2.28;;;2.08;;
7334;SDS011;3708;42.632;23.378;2022-08-01T10:46:18;3.08;;;2.40;;
7334;SDS011;3708;42.632;23.378;2022-08-01T10:48:54;3.55;;;2.10;;
7334;SDS011;3708;42.632;23.378;2022-08-01T10:51:25;5.30;;;1.85;;
7334;SDS011;3708;42.632;23.378;2022-08-01T10:53:53;2.10;;;1.90;;
7334;SDS011;3708;42.632;23.378;2022-08-01T10:56:23;4.65;;;2.30;;
7334;SDS011;3708;42.632;23.378;2022-08-01T10:58:51;3.60;;;2.60;;
7334;SDS011;3708;42.632;23.378;2022-08-01T11:01:29;2.50;;;2.30;;
7334;SDS011;3708;42.632;23.378;2022-08-01T11:04:07;3.30;;;1.90;;
7334;SDS011;3708;42.632;23.378;2022-08-01T11:06:42;7.63;;;2.10;;
7334;SDS011;3708;42.632;23.378;2022-08-01T11:09:21;8.82;;;2.00;;
7334;SDS011;3708;42.632;23.378;2022-08-01T11:11:57;2.53;;;1.98;;
7334;SDS011;3708;42.632;23.378;2022-08-01T11:14:27;1.92;;;1.77;;
7334;SDS011;3708;42.632;23.378;2022-08-01T11:16:56;2.42;;;2.13;;
7334;SDS011;3708;42.632;23.378;2022-08-01T11:20:06;2.10;;;1.77;;
7334;SDS011;3708;42.632;23.378;2022-08-01T11:31:41;4.32;;;1.92;;
7334;SDS011;3708;42.632;23.378;2022-08-01T11:34:08;4.28;;;2.00;;
7334;SDS011;3708;42.632;23.378;2022-08-01T11:36:35;2.28;;;1.95;;
7334;SDS011;3708;42.632;23.378;2022-08-01T11:39:15;2.40;;;1.90;;
7334;SDS011;3708;42.632;23.378;2022-08-01T11:41:44;8.73;;;2.20;;
7334;SDS011;3708;42.632;23.378;2022-08-01T11:44:15;3.35;;;2.08;;
7334;SDS011;3708;42.632;23.378;2022-08-01T11:49:43;2.40;;;1.98;;
7334;SDS011;3708;42.632;23.378;2022-08-01T11:52:13;2.17;;;1.80;;
7334;SDS011;3708;42.632;23.378;2022-08-01T11:54:42;1.98;;;1.88;;
7334;SDS011;3708;42.632;23.378;2022-08-01T11:57:10;2.50;;;2.30;;
7334;SDS011;3708;42.632;23.378;2022-08-01T11:59:42;1.80;;;1.70;;
7334;SDS011;3708;42.632;23.378;2022-08-01T12:02:21;3.63;;;1.92;;
7334;SDS011;3708;42.632;23.378;2022-08-01T12:04:51;4.80;;;2.20;;
7334;SDS011;3708;42.632;23.378;2022-08-01T12:07:23;2.75;;;2.30;;
7334;SDS011;3708;42.632;23.378;2022-08-01T12:09:58;3.55;;;2.20;;
7334;SDS011;3708;42.632;23.378;2022-08-01T12:12:27;2.63;;;1.80;;
7334;SDS011;3708;42.632;23.378;2022-08-01T12:14:57;6.32;;;2.40;;
7334;SDS011;3708;42.632;23.378;2022-08-01T12:17:28;3.83;;;2.03;;
7334;SDS011;3708;42.632;23.378;2022-08-01T12:19:57;5.70;;;2.15;;
7334;SDS011;3708;42.632;23.378;2022-08-01T12:22:24;3.10;;;2.20;;
7334;SDS011;3708;42.632;23.378;2022-08-01T12:24:51;3.38;;;2.28;;
7334;SDS011;3708;42.632;23.378;2022-08-01T12:27:26;2.63;;;2.20;;
7334;SDS011;3708;42.632;23.378;2022-08-01T12:29:56;2.17;;;1.98;;
7334;SDS011;3708;42.632;23.378;2022-08-01T12:32:25;3.15;;;2.30;;
7334;SDS011;3708;42.632;23.378;2022-08-01T12:34:54;2.67;;;2.28;;
7334;SDS011;3708;42.632;23.378;2022-08-01T12:37:27;3.22;;;2.22;;
7334;SDS011;3708;42.632;23.378;2022-08-01T12:39:54;2.67;;;2.10;;
7334;SDS011;3708;42.632;23.378;2022-08-01T12:42:22;2.40;;;2.20;;
7334;SDS011;3708;42.632;23.378;2022-08-01T12:44:51;2.78;;;2.55;;
7334;SDS011;3708;42.632;23.378;2022-08-01T12:47:21;2.08;;;1.90;;
7334;SDS011;3708;42.632;23.378;2022-08-01T12:49:50;3.50;;;2.30;;
7334;SDS011;3708;42.632;23.378;2022-08-01T12:52:18;3.97;;;2.78;;
7334;SDS011;3708;42.632;23.378;2022-08-01T12:55:07;2.75;;;2.10;;
7334;SDS011;3708;42.632;23.378;2022-08-01T12:57:36;3.55;;;2.33;;
7334;SDS011;3708;42.632;23.378;2022-08-01T13:00:06;2.20;;;2.00;;
7334;SDS011;3708;42.632;23.378;2022-08-01T13:02:37;3.03;;;2.08;;
7334;SDS011;3708;42.632;23.378;2022-08-01T13:05:05;2.80;;;2.60;;
7334;SDS011;3708;42.632;23.378;2022-08-01T13:07:35;3.30;;;2.20;;
7334;SDS011;3708;42.632;23.378;2022-08-01T13:10:03;3.72;;;2.58;;
7334;SDS011;3708;42.632;23.378;2022-08-01T13:12:31;4.63;;;2.33;;
7334;SDS011;3708;42.632;23.378;2022-08-01T13:14:58;5.57;;;1.90;;
7334;SDS011;3708;42.632;23.378;2022-08-01T13:17:29;2.42;;;2.20;;
7334;SDS011;3708;42.632;23.378;2022-08-01T13:19:59;2.90;;;2.40;;
7334;SDS011;3708;42.632;23.378;2022-08-01T13:22:31;2.08;;;1.88;;
7334;SDS011;3708;42.632;23.378;2022-08-01T13:25:09;2.67;;;2.00;;
7334;SDS011;3708;42.632;23.378;2022-08-01T13:27:39;5.47;;;2.15;;
7334;SDS011;3708;42.632;23.378;2022-08-01T13:30:13;3.80;;;2.22;;
7334;SDS011;3708;42.632;23.378;2022-08-01T13:32:43;3.08;;;2.30;;
7334;SDS011;3708;42.632;23.378;2022-08-01T13:35:20;4.15;;;2.17;;
7334;SDS011;3708;42.632;23.378;2022-08-01T13:37:47;2.78;;;2.03;;
7334;SDS011;3708;42.632;23.378;2022-08-01T13:40:22;2.30;;;1.80;;
7334;SDS011;3708;42.632;23.378;2022-08-01T13:42:50;4.07;;;2.03;;
7334;SDS011;3708;42.632;23.378;2022-08-01T13:45:19;6.70;;;2.53;;
7334;SDS011;3708;42.632;23.378;2022-08-01T13:47:46;7.07;;;2.58;;
7334;SDS011;3708;42.632;23.378;2022-08-01T13:50:13;2.72;;;2.53;;
7334;SDS011;3708;42.632;23.378;2022-08-01T13:52:41;2.28;;;2.08;;
7334;SDS011;3708;42.632;23.378;2022-08-01T13:55:09;2.78;;;2.20;;
7334;SDS011;3708;42.632;23.378;2022-08-01T13:57:38;2.97;;;2.70;;
7334;SDS011;3708;42.632;23.378;2022-08-01T14:00:06;5.47;;;2.10;;
7334;SDS011;3708;42.632;23.378;2022-08-01T14:02:35;2.53;;;2.30;;
7334;SDS011;3708;42.632;23.378;2022-08-01T14:05:02;2.60;;;2.28;;
7334;SDS011;3708;42.632;23.378;2022-08-01T14:07:29;2.78;;;2.50;;
7334;SDS011;3708;42.632;23.378;2022-08-01T14:09:59;3.65;;;2.03;;
7334;SDS011;3708;42.632;23.378;2022-08-01T14:12:27;3.35;;;1.90;;
7334;SDS011;3708;42.632;23.378;2022-08-01T14:14:55;4.40;;;2.53;;
7334;SDS011;3708;42.632;23.378;2022-08-01T14:17:22;3.13;;;2.20;;
7334;SDS011;3708;42.632;23.378;2022-08-01T14:19:49;5.55;;;2.33;;
7334;SDS011;3708;42.632;23.378;2022-08-01T14:22:16;4.80;;;2.15;;
7334;SDS011;3708;42.632;23.378;2022-08-01T14:24:43;7.80;;;2.20;;
7334;SDS011;3708;42.632;23.378;2022-08-01T14:27:12;3.00;;;2.20;;
7334;SDS011;3708;42.632;23.378;2022-08-01T14:29:38;5.18;;;2.13;;
7334;SDS011;3708;42.632;23.378;2022-08-01T14:32:07;6.35;;;2.35;;
7334;SDS011;3708;42.632;23.378;2022-08-01T14:34:35;3.00;;;2.30;;
7334;SDS011;3708;42.632;23.378;2022-08-01T14:37:02;2.35;;;2.15;;
7334;SDS011;3708;42.632;23.378;2022-08-01T14:39:29;3.80;;;2.08;;
7334;SDS011;3708;42.632;23.378;2022-08-01T14:41:56;2.17;;;1.85;;
7334;SDS011;3708;42.632;23.378;2022-08-01T14:44:24;1.70;;;1.60;;
7334;SDS011;3708;42.632;23.378;2022-08-01T14:46:52;2.88;;;2.03;;
7334;SDS011;3708;42.632;23.378;2022-08-01T14:49:19;3.17;;;2.00;;
7334;SDS011;3708;42.632;23.378;2022-08-01T14:51:46;1.90;;;1.70;;
7334;SDS011;3708;42.632;23.378;2022-08-01T14:54:13;2.90;;;2.45;;
7334;SDS011;3708;42.632;23.378;2022-08-01T14:56:40;2.42;;;2.22;;
7334;SDS011;3708;42.632;23.378;2022-08-01T14:59:07;3.70;;;2.03;;
7334;SDS011;3708;42.632;23.378;2022-08-01T15:01:35;2.90;;;2.40;;
7334;SDS011;3708;42.632;23.378;2022-08-01T15:04:02;2.20;;;2.00;;
7334;SDS011;3708;42.632;23.378;2022-08-01T15:06:29;3.00;;;1.98;;
7334;SDS011;3708;42.632;23.378;2022-08-01T15:08:56;3.47;;;2.40;;
7334;SDS011;3708;42.632;23.378;2022-08-01T15:11:23;2.30;;;1.75;;
7334;SDS011;3708;42.632;23.378;2022-08-01T15:13:50;4.20;;;1.90;;
7334;SDS011;3708;42.632;23.378;2022-08-01T15:16:31;2.95;;;1.67;;
7334;SDS011;3708;42.632;23.378;2022-08-01T15:19:03;2.33;;;1.85;;
7334;SDS011;3708;42.632;23.378;2022-08-01T15:21:30;4.50;;;1.95;;
7334;SDS011;3708;42.632;23.378;2022-08-01T15:23:58;2.72;;;2.10;;
7334;SDS011;3708;42.632;23.378;2022-08-01T15:26:25;2.30;;;1.77;;
7334;SDS011;3708;42.632;23.378;2022-08-01T15:28:52;2.33;;;2.00;;
7334;SDS011;3708;42.632;23.378;2022-08-01T15:31:19;5.65;;;1.88;;
7334;SDS011;3708;42.632;23.378;2022-08-01T15:33:47;4.03;;;2.15;;
7334;SDS011;3708;42.632;23.378;2022-08-01T15:36:14;5.32;;;2.42;;